Time;durP1;ratioP1;P1;durP2;ratioP2;P2;SDS_P1;SDS_P2;PMS_P1;PMS_P2;Temp;Humidity;BMP_temperature;BMP_pressure;BME280_temperature;BME280_humidity;BME280_pressure;Samples;Min_cycle;Max_cycle;Signal;HPM_P1;HPM_P2
2023/03/22 00:02:29;;;;;;;17.77;10.10;;;9.70;99.90;;;;;;4882208;29;20438;-87
2023/03/22 00:05:22;;;;;;;19.50;10.50;;;11.10;99.90;;;;;;4879311;29;20060;-87
2023/03/22 00:07:57;;;;;;;20.17;10.40;;;10.80;99.90;;;;;;4878454;29;20113;-87
2023/03/22 00:10:30;;;;;;;19.30;9.70;;;9.80;99.90;;;;;;4878758;29;20041;-86
2023/03/22 00:12:56;;;;;;;17.80;9.07;;;10.70;99.90;;;;;;4878262;29;20055;-87
2023/03/22 00:15:28;;;;;;;18.60;8.63;;;10.80;99.90;;;;;;4879522;29;20052;-86
2023/03/22 00:18:01;;;;;;;18.37;8.33;;;11.00;99.90;;;;;;4879570;29;20479;-87
2023/03/22 00:20:30;;;;;;;15.80;9.03;;;10.40;99.90;;;;;;4877318;29;20409;-87
2023/03/22 00:23:08;;;;;;;17.08;9.07;;;9.50;99.90;;;;;;4885181;29;20052;-87
2023/03/22 00:25:55;;;;;;;16.10;8.35;;;11.10;99.90;;;;;;4890044;29;20049;-87
2023/03/22 00:28:39;;;;;;;16.70;8.77;;;10.00;99.90;;;;;;4879660;29;20041;-86
2023/03/22 00:31:05;;;;;;;17.88;9.45;;;10.00;99.90;;;;;;4876602;29;20049;-87
2023/03/22 00:33:49;;;;;;;18.58;9.68;;;10.00;99.90;;;;;;4878357;29;20088;-87
2023/03/22 00:39:55;;;;;;;19.33;9.25;;;10.00;99.90;;;;;;4887315;29;20060;-87
2023/03/22 00:42:27;;;;;;;19.48;9.43;;;10.10;99.90;;;;;;4897551;29;20045;-86
2023/03/22 00:44:52;;;;;;;19.25;9.57;;;10.70;99.90;;;;;;4896831;29;20128;-86
2023/03/22 00:47:22;;;;;;;17.17;8.80;;;9.90;99.90;;;;;;4897658;29;20200;-87
2023/03/22 00:50:00;;;;;;;17.88;9.07;;;11.10;99.90;;;;;;4897465;29;20051;-87
2023/03/22 00:52:28;;;;;;;18.42;9.40;;;10.00;99.90;;;;;;4897147;29;20131;-87
2023/03/22 00:57:32;;;;;;;17.17;8.27;;;9.80;99.90;;;;;;4927349;23;20048;-87
2023/03/22 00:59:58;;;;;;;15.77;7.90;;;10.80;99.90;;;;;;4899204;29;20047;-87
2023/03/22 01:02:32;;;;;;;16.60;7.97;;;10.50;99.90;;;;;;4916103;29;20059;-87
2023/03/22 01:05:08;;;;;;;15.40;7.50;;;9.80;99.90;;;;;;4897691;29;20119;-87
2023/03/22 01:07:54;;;;;;;17.75;7.53;;;10.80;99.90;;;;;;4916732;29;20055;-87
2023/03/22 01:10:19;;;;;;;15.10;7.07;;;9.70;99.90;;;;;;4898784;29;20053;-87
2023/03/22 01:13:05;;;;;;;17.38;7.45;;;11.30;99.90;;;;;;4915658;29;20047;-88
2023/03/22 01:15:49;;;;;;;17.73;7.78;;;9.80;99.90;;;;;;4907147;23;20451;-87
2023/03/22 01:18:24;;;;;;;17.50;7.75;;;10.60;99.90;;;;;;4917848;29;20040;-87
2023/03/22 01:20:51;;;;;;;17.33;6.97;;;10.90;99.90;;;;;;4917825;29;20059;-86
2023/03/22 01:23:16;;;;;;;15.68;6.65;;;9.70;99.90;;;;;;4917122;29;20051;-86
2023/03/22 01:25:58;;;;;;;13.98;6.00;;;11.10;99.90;;;;;;4917807;29;20056;-87
2023/03/22 01:28:32;;;;;;;15.93;6.45;;;9.70;99.90;;;;;;4921909;29;20570;-87
2023/03/22 01:31:17;;;;;;;16.13;6.03;;;9.70;99.90;;;;;;4926124;29;20091;-86
2023/03/22 01:34:39;;;;;;;15.00;5.65;;;10.80;99.90;;;;;;4937803;29;20095;-87
2023/03/22 01:37:26;;;;;;;13.55;5.90;;;9.00;99.90;;;;;;4939187;29;20403;-87
2023/03/22 01:40:02;;;;;;;11.60;5.15;;;9.70;99.90;;;;;;4936792;29;20050;-87
2023/03/22 01:42:28;;;;;;;13.80;5.03;;;10.30;99.90;;;;;;4937564;29;20566;-87
2023/03/22 01:45:12;;;;;;;18.05;5.43;;;9.70;99.90;;;;;;4937348;29;20134;-87
2023/03/22 01:47:46;;;;;;;;;;;9.60;99.90;;;;;;4938641;29;20412;-87
2023/03/22 01:50:13;;;;;;;16.38;5.88;;;10.60;99.90;;;;;;4937332;29;20013;-87
2023/03/22 01:52:51;;;;;;;17.52;5.75;;;9.60;99.90;;;;;;4937663;29;20060;-87
2023/03/22 01:55:36;;;;;;;14.85;5.40;;;10.60;99.90;;;;;;4942636;29;20059;-88
2023/03/22 01:58:17;;;;;;;14.52;5.07;;;9.60;99.90;;;;;;4941079;29;20044;-87
2023/03/22 02:00:50;;;;;;;14.55;5.38;;;9.60;99.90;;;;;;4939565;29;20099;-87
2023/03/22 02:03:44;;;;;;;13.30;4.90;;;10.90;99.90;;;;;;4938404;29;20048;-88
2023/03/22 02:06:09;;;;;;;15.43;5.30;;;9.50;99.90;;;;;;4956819;29;20043;-87
2023/03/22 02:08:39;;;;;;;16.00;5.75;;;10.60;99.90;;;;;;4955001;29;20047;-87
2023/03/22 02:11:14;;;;;;;13.82;5.03;;;9.90;99.90;;;;;;4942949;29;20115;-87
2023/03/22 02:14:18;;;;;;;14.25;5.07;;;10.80;99.90;;;;;;4922883;29;20055;-87
2023/03/22 02:17:06;;;;;;;16.95;5.38;;;9.50;99.90;;;;;;4937967;29;20087;-87
2023/03/22 02:22:28;;;;;;;15.75;5.13;;;9.50;99.90;;;;;;5003979;23;20085;-87
2023/03/22 02:25:00;;;;;;;15.38;5.47;;;9.50;99.90;;;;;;4881730;29;20056;-87
2023/03/22 02:27:47;;;;;;;13.75;5.38;;;9.60;99.90;;;;;;4899740;29;20140;-86
2023/03/22 02:30:54;;;;;;;15.40;5.22;;;9.50;99.90;;;;;;4902311;23;20108;-87
2023/03/22 02:33:40;;;;;;;15.60;4.68;;;9.50;99.90;;;;;;4918864;29;20169;-88
2023/03/22 02:37:02;;;;;;;11.18;4.18;;;9.50;99.90;;;;;;4901580;29;20048;-87
2023/03/22 02:39:54;;;;;;;14.80;4.85;;;9.50;99.90;;;;;;4901435;29;20138;-87
2023/03/22 02:43:05;;;;;;;12.65;4.57;;;8.90;99.90;;;;;;4898411;29;20048;-87
2023/03/22 02:46:04;;;;;;;11.82;4.07;;;10.40;99.90;;;;;;4859892;29;20410;-87
2023/03/22 02:48:40;;;;;;;13.57;4.63;;;9.70;99.90;;;;;;4808427;29;20081;-88
2023/03/22 02:51:15;;;;;;;13.50;5.00;;;10.70;99.90;;;;;;4907351;29;20052;-87
2023/03/22 02:57:33;;;;;;;16.85;4.75;;;9.40;99.90;;;;;;4917354;29;20499;-87
2023/03/22 03:00:17;;;;;;;15.07;4.78;;;9.40;99.90;;;;;;4918049;23;20059;-86
2023/03/22 03:03:10;;;;;;;11.85;4.85;;;10.70;99.90;;;;;;4937083;29;20122;-87
2023/03/22 03:05:51;;;;;;;16.17;4.78;;;9.30;99.90;;;;;;4936039;29;20044;-87
2023/03/22 03:08:19;;;;;;;16.80;5.10;;;9.10;99.90;;;;;;4940397;29;20059;-87
2023/03/22 03:10:56;;;;;;;11.93;4.57;;;10.20;99.90;;;;;;4937876;29;20042;-87
2023/03/22 03:13:28;;;;;;;11.98;4.57;;;9.20;99.90;;;;;;4936114;29;20067;-87
2023/03/22 03:15:57;;;;;;;12.20;4.80;;;8.30;99.90;;;;;;4935747;29;20040;-87
2023/03/22 03:18:45;;;;;;;12.02;4.50;;;10.20;99.90;;;;;;4936528;29;20052;-87
2023/03/22 03:21:41;;;;;;;12.45;4.30;;;9.20;99.90;;;;;;4934710;29;20408;-87
2023/03/22 03:24:31;;;;;;;14.02;4.60;;;9.20;99.90;;;;;;4936630;29;20051;-87
2023/03/22 03:27:38;;;;;;;12.57;4.43;;;9.20;99.90;;;;;;4934881;29;20121;-87
2023/03/22 03:30:13;;;;;;;12.98;4.70;;;10.00;99.90;;;;;;4891740;29;20059;-86
2023/03/22 03:33:03;;;;;;;12.90;4.35;;;9.20;99.90;;;;;;4882662;29;20055;-87
2023/03/22 03:35:52;;;;;;;11.52;4.03;;;9.30;99.90;;;;;;4925104;29;20063;-87
2023/03/22 03:38:37;;;;;;;14.57;4.60;;;9.20;99.90;;;;;;4900998;29;20360;-87
2023/03/22 03:41:23;;;;;;;12.00;4.23;;;10.10;99.90;;;;;;4920589;29;20114;-87
2023/03/22 03:44:02;;;;;;;13.25;5.03;;;10.20;99.90;;;;;;4935279;29;20079;-87
2023/03/22 03:46:41;;;;;;;12.32;4.00;;;9.40;99.90;;;;;;4919423;29;20048;-87
2023/03/22 03:49:28;;;;;;;12.35;4.10;;;10.30;99.90;;;;;;4936435;29;20130;-87
2023/03/22 03:52:09;;;;;;;11.65;4.30;;;10.20;99.90;;;;;;4919794;29;20119;-87
2023/03/22 03:54:47;;;;;;;12.85;4.50;;;9.80;99.90;;;;;;4918260;29;20122;-87
2023/03/22 03:57:12;;;;;;;13.07;4.63;;;8.40;99.90;;;;;;4919130;29;20091;-87
2023/03/22 03:59:47;;;;;;;13.05;4.32;;;10.50;99.90;;;;;;4936083;29;20094;-86
2023/03/22 04:02:13;;;;;;;14.32;4.95;;;10.40;99.90;;;;;;4935090;29;20090;-87
2023/03/22 04:04:51;;;;;;;13.60;5.05;;;10.80;99.90;;;;;;4936073;29;20138;-87
2023/03/22 04:07:29;;;;;;;14.93;5.07;;;9.80;99.90;;;;;;4935797;29;20154;-87
2023/03/22 04:09:54;;;;;;;11.07;4.85;;;10.70;99.90;;;;;;4918824;29;20082;-86
2023/03/22 04:12:35;;;;;;;13.95;5.22;;;10.20;99.90;;;;;;4935762;29;20063;-87
2023/03/22 04:15:01;;;;;;;13.82;5.80;;;9.30;99.90;;;;;;4935066;29;20416;-87
2023/03/22 04:17:28;;;;;;;13.85;6.65;;;9.30;99.90;;;;;;4918961;29;20507;-87
2023/03/22 04:20:09;;;;;;;14.65;6.45;;;9.40;99.90;;;;;;4918675;29;20059;-87
2023/03/22 04:22:37;;;;;;;17.45;7.40;;;9.40;99.90;;;;;;4918003;29;20048;-88
2023/03/22 04:25:12;;;;;;;17.55;7.88;;;9.40;99.90;;;;;;4935567;29;20048;-87
2023/03/22 04:27:41;;;;;;;14.63;7.90;;;9.40;99.90;;;;;;4918762;29;20047;-86
2023/03/22 04:30:09;;;;;;;16.95;8.80;;;9.40;99.90;;;;;;4917752;29;20052;-87
2023/03/22 04:32:36;;;;;;;19.67;9.40;;;9.50;99.90;;;;;;4931314;29;20508;-87
2023/03/22 04:35:02;;;;;;;18.17;9.25;;;11.10;99.90;;;;;;4909142;23;20144;-87
2023/03/22 04:37:30;;;;;;;17.98;9.30;;;9.60;99.90;;;;;;4897170;29;20088;-87
2023/03/22 04:40:01;;;;;;;17.77;9.73;;;9.60;99.90;;;;;;4881312;29;20033;-87
2023/03/22 04:42:32;;;;;;;18.98;9.90;;;10.40;99.90;;;;;;4892988;29;20048;-87
2023/03/22 04:44:59;;;;;;;20.58;11.23;;;10.90;99.90;;;;;;4898297;29;20044;-87
2023/03/22 04:47:25;;;;;;;21.10;10.35;;;11.10;99.90;;;;;;4881115;29;20048;-87
2023/03/22 04:50:09;;;;;;;18.40;10.20;;;9.60;99.90;;;;;;4897394;29;20076;-87
2023/03/22 04:52:35;;;;;;;18.23;10.80;;;9.60;99.90;;;;;;4880584;29;20516;-87
2023/03/22 04:55:13;;;;;;;22.80;11.45;;;10.80;99.90;;;;;;4880541;29;20049;-87
2023/03/22 04:57:39;;;;;;;21.67;10.55;;;10.80;99.90;;;;;;4880394;29;20115;-86
2023/03/22 05:00:57;;;;;;;21.58;11.07;;;9.70;99.90;;;;;;4901289;23;20613;-87
2023/03/22 05:04:14;;;;;;;19.95;10.57;;;10.60;99.90;;;;;;4912630;29;20051;-85
2023/03/22 05:07:31;;;;;;;18.67;11.20;;;9.80;99.90;;;;;;4922125;29;20135;-87
2023/03/22 05:09:57;;;;;;;19.42;10.13;;;9.90;99.90;;;;;;4936629;29;20052;-87
2023/03/22 05:12:23;;;;;;;21.35;10.70;;;11.40;99.90;;;;;;4930286;29;20043;-87
2023/03/22 05:14:59;;;;;;;19.05;10.10;;;10.50;99.90;;;;;;4913774;29;20048;-87
2023/03/22 05:17:25;;;;;;;20.83;10.73;;;11.30;99.90;;;;;;4955463;23;20240;-87
2023/03/22 05:20:07;;;;;;;18.80;10.48;;;9.90;99.90;;;;;;4901829;29;20143;-87
2023/03/22 05:22:49;;;;;;;20.25;10.60;;;9.80;99.90;;;;;;4910330;29;20135;-87
2023/03/22 05:25:15;;;;;;;18.33;11.05;;;11.10;99.90;;;;;;4918085;29;20032;-86
2023/03/22 05:27:46;;;;;;;18.95;11.15;;;9.80;99.90;;;;;;4920473;29;20559;-87
2023/03/22 05:30:18;;;;;;;18.65;10.45;;;10.60;99.90;;;;;;4920045;29;20040;-87
2023/03/22 05:32:43;;;;;;;18.73;10.73;;;10.20;99.90;;;;;;4918500;29;20046;-87
2023/03/22 05:35:09;;;;;;;18.83;10.80;;;9.80;99.90;;;;;;4919597;29;20123;-87
2023/03/22 05:37:35;;;;;;;19.15;10.45;;;9.80;99.90;;;;;;4918865;29;20071;-87
2023/03/22 05:40:08;;;;;;;17.27;10.05;;;9.80;99.90;;;;;;4918028;29;20437;-87
2023/03/22 05:42:49;;;;;;;17.58;10.77;;;9.80;99.90;;;;;;4920254;29;20096;-87
2023/03/22 05:45:15;;;;;;;17.63;10.13;;;9.90;99.90;;;;;;4919023;29;20071;-87
2023/03/22 05:47:59;;;;;;;35.25;11.77;;;9.90;99.90;;;;;;4919168;29;20103;-86
2023/03/22 05:50:25;;;;;;;21.98;10.27;;;9.90;99.90;;;;;;4908423;29;20048;-87
2023/03/22 05:52:57;;;;;;;19.48;10.18;;;11.10;99.90;;;;;;4919296;29;20047;-87
2023/03/22 05:55:25;;;;;;;18.65;10.10;;;11.20;99.90;;;;;;4919363;29;20485;-87
2023/03/22 05:57:53;;;;;;;17.58;9.98;;;9.90;99.90;;;;;;4919550;29;20040;-87
2023/03/22 06:00:39;;;;;;;20.80;9.98;;;10.60;99.90;;;;;;4918389;29;20465;-87
2023/03/22 06:03:05;;;;;;;19.08;9.90;;;10.70;99.90;;;;;;4919441;29;20139;-87
2023/03/22 06:05:40;;;;;;;17.30;9.65;;;9.80;99.90;;;;;;4905356;29;20067;-87
2023/03/22 06:08:23;;;;;;;19.98;9.77;;;11.30;99.90;;;;;;4903334;29;20477;-87
2023/03/22 06:10:55;;;;;;;18.27;9.32;;;10.80;99.90;;;;;;4919303;29;20082;-87
2023/03/22 06:13:21;;;;;;;17.70;9.68;;;11.20;99.90;;;;;;4905045;29;20180;-86
2023/03/22 06:16:08;;;;;;;17.65;9.32;;;11.00;99.90;;;;;;4903175;29;20143;-87
2023/03/22 06:18:53;;;;;;;20.88;10.00;;;10.00;99.90;;;;;;4918172;29;20432;-87
2023/03/22 06:21:33;;;;;;;;;;;11.30;99.90;;;;;;4901729;29;20623;-87
2023/03/22 06:24:14;;;;;;;17.92;8.57;;;9.80;99.90;;;;;;4918929;29;20018;-88
2023/03/22 06:26:59;;;;;;;19.25;8.95;;;10.70;99.90;;;;;;4918585;29;20063;-87
2023/03/22 06:29:34;;;;;;;17.77;8.52;;;10.50;99.90;;;;;;4882874;29;20079;-87
2023/03/22 06:36:09;;;;;;;18.65;9.23;;;9.90;99.90;;;;;;4924511;29;20111;-89
2023/03/22 06:42:32;;;;;;;15.35;7.95;;;9.80;99.90;;;;;;4917371;29;20052;-90
2023/03/22 06:45:07;;;;;;;17.65;8.30;;;10.00;99.90;;;;;;4899908;29;20052;-90
2023/03/22 06:47:45;;;;;;;15.65;7.88;;;9.90;99.90;;;;;;4901521;29;20075;-89
2023/03/22 06:50:37;;;;;;;16.45;8.40;;;10.30;99.90;;;;;;4899976;29;20056;-88
2023/03/22 06:53:18;;;;;;;14.13;7.60;;;10.00;99.90;;;;;;4849442;29;20052;-89
2023/03/22 06:56:04;;;;;;;18.13;8.23;;;11.20;99.90;;;;;;4918253;29;20150;-89
2023/03/22 06:58:30;;;;;;;18.33;7.57;;;10.40;99.90;;;;;;4900484;29;20488;-88
2023/03/22 07:00:58;;;;;;;15.90;7.53;;;11.20;99.90;;;;;;4932700;23;20075;-91
2023/03/22 07:03:59;;;;;;;17.95;7.65;;;10.10;99.90;;;;;;4909046;29;20074;-89
2023/03/22 07:10:02;;;;;;;15.38;6.93;;;11.20;99.90;;;;;;4993813;23;20048;-89
2023/03/22 09:14:51;;;;;;;13.30;4.35;;;11.30;99.90;;;;;;5073665;23;20483;-89
2023/03/22 09:17:32;;;;;;;13.75;4.50;;;11.30;99.90;;;;;;4859623;29;20054;-87
2023/03/22 09:20:31;;;;;;;13.50;3.95;;;11.40;99.90;;;;;;4862445;29;20097;-88
2023/03/22 09:23:30;;;;;;;13.25;4.97;;;11.50;99.90;;;;;;4858563;29;20101;-88
2023/03/22 09:26:17;;;;;;;14.15;4.70;;;12.20;99.90;;;;;;4747436;30;20074;-87
2023/03/22 09:36:33;;;;;;;15.23;4.50;;;12.60;99.90;;;;;;4858099;29;20048;-88
2023/03/22 09:39:29;;;;;;;14.90;5.18;;;11.70;99.90;;;;;;4777132;29;20054;-88
2023/03/22 10:08:18;;;;;;;17.63;5.57;;;11.80;99.90;;;;;;6375836;22;20018;-86
2023/03/22 10:34:53;;;;;;;13.43;4.47;;;11.40;99.90;;;;;;6370964;22;20022;-86
2023/03/22 10:56:18;;;;;;;15.20;5.22;;;11.20;99.90;;;;;;6344971;22;20053;-87
2023/03/22 11:00:12;;;;;;;14.48;4.75;;;11.20;99.90;;;;;;6281325;22;20068;-87
2023/03/22 11:05:40;;;;;;;14.05;5.30;;;10.90;99.90;;;;;;6356386;22;20026;-87
2023/03/22 11:39:50;;;;;;;14.20;5.60;;;10.90;99.90;;;;;;6242931;23;20023;-87
2023/03/22 11:42:46;;;;;;;15.02;7.38;;;10.70;99.90;;;;;;6243601;23;20105;-88
2023/03/22 11:45:56;;;;;;;11.93;5.68;;;10.80;99.90;;;;;;6204251;22;20078;-88
2023/03/22 12:21:15;;;;;;;16.85;7.30;;;10.60;99.90;;;;;;6336059;22;20536;-86
2023/03/22 12:46:50;;;;;;;12.25;4.45;;;10.70;99.90;;;;;;6261499;22;20023;-84
2023/03/22 12:49:53;;;;;;;11.70;4.15;;;10.30;99.90;;;;;;6217172;23;20070;-86
2023/03/22 13:05:17;;;;;;;12.40;4.25;;;10.90;99.90;;;;;;6401184;22;20029;-86
2023/03/22 13:08:56;;;;;;;13.55;4.70;;;11.90;99.90;;;;;;6400477;22;20024;-86
2023/03/22 13:35:41;;;;;;;;;;;;;;;;;;;;;
2023/03/22 13:38:21;;;;;;;13.73;5.80;;;10.40;99.90;;;;;;6180633;23;20021;-86
2023/03/22 13:41:20;;;;;;;17.30;5.50;;;10.40;99.90;;;;;;6157292;23;20122;-85
2023/03/22 13:46:38;;;;;;;13.27;4.45;;;10.70;99.90;;;;;;6249617;22;20137;-85
2023/03/22 13:50:00;;;;;;;13.27;4.75;;;11.40;99.90;;;;;;6247156;22;20381;-86
2023/03/22 13:52:48;;;;;;;13.00;4.50;;;9.50;99.90;;;;;;6249543;22;20043;-86
2023/03/22 13:55:50;;;;;;;11.00;5.07;;;11.20;99.90;;;;;;6249647;22;20358;-86
2023/03/22 13:58:49;;;;;;;15.07;5.40;;;10.00;99.90;;;;;;6289461;22;20533;-87
2023/03/22 14:01:48;;;;;;;14.23;4.57;;;9.90;99.90;;;;;;6369601;22;20430;-87
2023/03/22 14:04:21;;;;;;;16.55;6.72;;;11.20;99.90;;;;;;6341059;22;20015;-86
2023/03/22 14:07:21;;;;;;;12.80;6.03;;;11.40;99.90;;;;;;6368737;22;20006;-86
2023/03/22 14:10:24;;;;;;;13.68;5.93;;;10.10;99.90;;;;;;6368052;22;20322;-86
2023/03/22 14:12:51;;;;;;;17.35;7.65;;;9.90;99.90;;;;;;6368431;22;20022;-85
2023/03/22 14:24:56;;;;;;;14.73;5.40;;;10.00;99.90;;;;;;6373355;22;20021;-86
2023/03/22 14:27:28;;;;;;;17.90;7.65;;;9.90;99.90;;;;;;6353263;22;20065;-86
2023/03/22 14:29:59;;;;;;;14.52;6.90;;;11.30;99.90;;;;;;6393211;22;20022;-86
2023/03/22 14:32:30;;;;;;;12.88;5.95;;;11.10;99.90;;;;;;6370587;22;20043;-86
2023/03/22 14:35:19;;;;;;;14.25;6.05;;;11.00;99.90;;;;;;6342071;22;20093;-86
2023/03/22 14:37:48;;;;;;;13.75;6.10;;;9.80;99.90;;;;;;6343099;22;20010;-86
2023/03/22 14:40:47;;;;;;;15.25;6.45;;;11.00;99.90;;;;;;6371113;22;20014;-86
2023/03/22 14:43:23;;;;;;;15.52;6.30;;;10.00;99.90;;;;;;6371351;22;20044;-86
2023/03/22 14:46:40;;;;;;;15.23;6.70;;;10.80;99.90;;;;;;6371232;22;20014;-86
2023/03/22 14:49:15;;;;;;;15.93;6.50;;;10.00;99.90;;;;;;6216999;23;20518;-86
2023/03/22 14:51:42;;;;;;;14.93;6.75;;;11.10;99.90;;;;;;6218567;23;20026;-86
2023/03/22 14:54:30;;;;;;;15.20;6.28;;;10.80;99.90;;;;;;6323530;22;20011;-86
2023/03/22 14:57:27;;;;;;;15.55;6.55;;;10.00;99.90;;;;;;6342485;22;20018;-87
2023/03/22 15:00:27;;;;;;;13.90;6.95;;;9.60;99.90;;;;;;6371032;22;20029;-87
2023/03/22 15:03:30;;;;;;;17.55;6.68;;;9.90;99.90;;;;;;6217770;23;20035;-86
2023/03/22 15:13:01;;;;;;;14.60;6.15;;;10.10;99.90;;;;;;6338100;22;20387;-87
2023/03/22 15:16:17;;;;;;;11.85;5.60;;;9.90;99.90;;;;;;6334643;22;20043;-87
2023/03/22 15:43:09;;;;;;;16.42;6.38;;;11.30;99.90;;;;;;6304100;22;20065;-87
2023/03/22 15:45:36;;;;;;;12.13;5.78;;;10.20;99.90;;;;;;6276571;22;20022;-86
2023/03/22 15:56:30;;;;;;;13.43;5.78;;;10.30;99.90;;;;;;6402713;22;20437;-87
2023/03/22 15:59:18;;;;;;;11.30;5.38;;;11.20;99.90;;;;;;6373104;22;20069;-86
2023/03/22 16:06:08;;;;;;;12.75;5.40;;;9.70;99.90;;;;;;6302951;22;20030;-86
2023/03/22 16:08:37;;;;;;;11.35;5.18;;;10.30;99.90;;;;;;6178533;23;20025;-90
2023/03/22 16:11:04;;;;;;;13.38;5.28;;;9.60;99.90;;;;;;6160542;22;20074;-86
2023/03/22 16:19:38;;;;;;;12.00;5.50;;;10.30;99.90;;;;;;6338282;22;20079;-89
2023/03/22 16:36:53;;;;;;;15.20;5.75;;;10.00;99.90;;;;;;6335703;22;20339;-86
2023/03/22 16:39:21;;;;;;;12.57;5.63;;;10.30;99.90;;;;;;6338213;22;20010;-85
2023/03/22 17:21:53;;;;;;;13.45;5.65;;;10.50;99.90;;;;;;6400288;22;20016;-87
2023/03/22 17:24:50;;;;;;;12.70;5.85;;;10.50;99.90;;;;;;6372338;22;20025;-86
2023/03/22 17:27:20;;;;;;;12.05;5.25;;;10.40;99.90;;;;;;6386836;22;20318;-89
2023/03/22 17:47:13;;;;;;;13.93;6.05;;;10.20;99.90;;;;;;6428431;22;20039;-91
2023/03/22 17:50:30;;;;;;;15.50;6.20;;;9.60;99.90;;;;;;6324078;22;20025;-88
2023/03/22 17:53:24;;;;;;;15.15;6.00;;;9.60;99.90;;;;;;6339961;22;20409;-89
2023/03/22 17:56:24;;;;;;;15.90;6.55;;;10.20;99.90;;;;;;6341933;22;20010;-89
2023/03/22 17:59:16;;;;;;;13.32;6.50;;;10.20;99.90;;;;;;6339585;22;20010;-89
2023/03/22 18:01:42;;;;;;;14.07;6.25;;;9.60;99.90;;;;;;6350719;22;20104;-87
2023/03/22 18:04:18;;;;;;;13.55;6.57;;;10.20;99.90;;;;;;6336297;22;20435;-87
2023/03/22 18:06:44;;;;;;;12.90;6.00;;;11.60;99.90;;;;;;6338151;22;20018;-87
2023/03/22 18:09:16;;;;;;;12.00;6.28;;;10.20;99.90;;;;;;6338151;22;20015;-88
2023/03/22 18:11:44;;;;;;;13.52;6.00;;;11.20;99.90;;;;;;6337820;22;20775;-85
2023/03/22 18:14:16;;;;;;;12.00;5.18;;;10.30;99.90;;;;;;6358438;22;20034;-86
2023/03/22 18:16:54;;;;;;;12.52;5.55;;;11.50;99.90;;;;;;6342317;22;20015;-86
2023/03/22 18:19:22;;;;;;;15.53;5.90;;;11.30;99.90;;;;;;6338284;22;20041;-85
2023/03/22 18:21:55;;;;;;;10.90;5.40;;;10.40;99.90;;;;;;6350301;22;20060;-85
2023/03/22 18:24:26;;;;;;;12.57;5.75;;;10.30;99.90;;;;;;6344518;22;20014;-85
2023/03/22 18:26:53;;;;;;;12.40;5.45;;;10.30;99.90;;;;;;6371790;22;20014;-85
2023/03/22 18:33:26;;;;;;;12.43;5.80;;;10.40;99.90;;;;;;6307557;22;20060;-86
2023/03/22 18:35:59;;;;;;;14.40;6.47;;;11.50;99.90;;;;;;6281585;22;20022;-85
2023/03/22 18:38:26;;;;;;;;;;;11.20;99.90;;;;;;6282735;22;20026;-85
2023/03/22 18:40:53;;;;;;;11.65;6.35;;;10.50;99.90;;;;;;6281259;22;19915;-85
2023/03/22 18:43:25;;;;;;;12.55;6.25;;;11.80;99.90;;;;;;6308720;22;20061;-85
2023/03/22 18:45:51;;;;;;;15.05;6.97;;;11.80;99.90;;;;;;6281698;22;20023;-84
2023/03/22 18:48:16;;;;;;;12.73;7.10;;;11.60;99.90;;;;;;6280103;22;20027;-85
2023/03/22 18:50:42;;;;;;;15.27;7.38;;;11.60;99.90;;;;;;6309120;22;20324;-85
2023/03/22 18:54:04;;;;;;;14.75;7.95;;;11.70;99.90;;;;;;6280772;22;20019;-84
2023/03/22 18:56:33;;;;;;;15.93;8.98;;;9.80;99.90;;;;;;6308841;22;20062;-85
2023/03/22 18:59:02;;;;;;;15.80;9.38;;;11.50;99.90;;;;;;6316600;22;20015;-84
2023/03/22 19:01:28;;;;;;;16.02;9.43;;;10.20;99.90;;;;;;6310315;22;20019;-84
2023/03/22 19:03:54;;;;;;;19.80;10.23;;;11.50;99.90;;;;;;6281280;22;20023;-84
2023/03/22 19:06:21;;;;;;;14.43;8.25;;;10.30;99.90;;;;;;6280632;22;20097;-83
2023/03/22 19:08:49;;;;;;;14.40;8.45;;;10.80;99.90;;;;;;6307985;22;20015;-84
2023/03/22 19:11:16;;;;;;;14.90;8.32;;;10.90;99.90;;;;;;6308036;22;20388;-84
2023/03/22 19:13:54;;;;;;;17.25;9.57;;;10.30;99.90;;;;;;6280698;22;20379;-84
2023/03/22 19:16:20;;;;;;;14.65;8.13;;;11.30;99.90;;;;;;6307297;22;20019;-84
2023/03/22 19:18:52;;;;;;;16.33;8.60;;;11.60;99.90;;;;;;6308172;22;20045;-84
2023/03/22 19:21:18;;;;;;;17.60;8.90;;;10.20;99.90;;;;;;6280433;22;20030;-84
2023/03/22 19:23:49;;;;;;;16.45;8.88;;;11.40;99.90;;;;;;6307112;22;20019;-84
2023/03/22 19:26:15;;;;;;;15.48;9.77;;;11.50;99.90;;;;;;6280360;22;20018;-84
2023/03/22 19:28:44;;;;;;;15.20;9.43;;;11.40;99.90;;;;;;6280669;22;20019;-84
2023/03/22 19:31:35;;;;;;;15.48;9.60;;;11.40;99.90;;;;;;6302955;22;20326;-84
2023/03/22 19:34:02;;;;;;;14.80;9.38;;;10.80;99.90;;;;;;6310950;22;20101;-85
2023/03/22 19:36:33;;;;;;;17.90;10.03;;;11.40;99.90;;;;;;6310926;22;20007;-85
2023/03/22 19:39:02;;;;;;;15.23;9.35;;;11.00;99.90;;;;;;6339475;22;20014;-87
2023/03/22 19:41:28;;;;;;;15.87;8.97;;;10.30;99.90;;;;;;6339725;22;20011;-85
2023/03/22 19:43:57;;;;;;;16.90;9.13;;;11.40;99.90;;;;;;6316758;22;20021;-85
2023/03/22 19:46:22;;;;;;;16.30;8.70;;;10.30;99.90;;;;;;6342044;22;20064;-84
2023/03/22 19:48:51;;;;;;;15.93;9.07;;;11.30;99.90;;;;;;6312117;22;20022;-85
2023/03/22 19:51:20;;;;;;;14.07;8.45;;;10.50;99.90;;;;;;6316370;22;20022;-84
2023/03/22 19:53:55;;;;;;;15.93;8.13;;;11.70;99.90;;;;;;6342241;22;20015;-84
2023/03/22 19:56:30;;;;;;;13.43;8.30;;;11.50;99.90;;;;;;6311559;22;20101;-85
2023/03/22 19:59:02;;;;;;;14.77;8.60;;;11.20;99.90;;;;;;6338970;22;20021;-84
2023/03/22 20:01:34;;;;;;;16.48;8.25;;;10.40;99.90;;;;;;6311501;22;20021;-85
2023/03/22 20:04:04;;;;;;;13.63;8.32;;;10.50;99.90;;;;;;6310473;22;20757;-84
2023/03/22 20:06:36;;;;;;;12.63;7.63;;;11.70;99.90;;;;;;6311564;22;20064;-84
2023/03/22 20:09:05;;;;;;;14.98;7.85;;;9.50;99.90;;;;;;6311132;22;20469;-84
2023/03/22 20:11:32;;;;;;;13.98;8.30;;;10.40;99.90;;;;;;6310554;22;20018;-84
2023/03/22 20:14:02;;;;;;;13.55;7.43;;;10.40;99.90;;;;;;6340195;22;20086;-84
2023/03/22 20:19:24;;;;;;;15.27;7.63;;;11.20;99.90;;;;;;6310531;22;20019;-84
2023/03/22 20:21:50;;;;;;;16.05;7.88;;;11.30;99.90;;;;;;6332126;22;20022;-84
2023/03/22 20:24:41;;;;;;;14.10;8.15;;;11.40;99.90;;;;;;6337126;22;20018;-84
2023/03/22 20:27:08;;;;;;;16.33;7.80;;;10.40;99.90;;;;;;6337995;22;20021;-84
2023/03/22 20:29:34;;;;;;;15.10;7.85;;;11.10;99.90;;;;;;6341668;22;20050;-84
2023/03/22 20:32:06;;;;;;;15.27;8.60;;;11.70;99.90;;;;;;6352446;22;20018;-84
2023/03/22 20:34:34;;;;;;;15.70;7.97;;;11.30;99.90;;;;;;6345822;22;20060;-84
2023/03/22 20:37:00;;;;;;;13.88;8.15;;;10.50;99.90;;;;;;6337737;22;20076;-84
2023/03/22 20:39:34;;;;;;;13.77;8.15;;;11.10;99.90;;;;;;6336122;22;20316;-84
2023/03/22 20:42:03;;;;;;;;;;;10.50;99.90;;;;;;6337400;22;20462;-83
2023/03/22 20:44:29;;;;;;;15.57;8.73;;;10.50;99.90;;;;;;6337650;22;20010;-83
2023/03/22 20:46:55;;;;;;;15.43;9.00;;;11.70;99.90;;;;;;6350404;22;20017;-83
2023/03/22 20:49:24;;;;;;;13.45;8.63;;;11.90;99.90;;;;;;6370261;22;20018;-83
2023/03/22 20:51:53;;;;;;;17.67;9.15;;;10.50;99.90;;;;;;6370378;22;20397;-83
2023/03/22 20:54:21;;;;;;;16.75;9.13;;;10.40;99.90;;;;;;6369035;22;20014;-83
2023/03/22 20:57:06;;;;;;;19.15;8.77;;;11.80;99.90;;;;;;6369862;22;20022;-83
2023/03/22 20:59:47;;;;;;;16.25;9.73;;;10.40;99.90;;;;;;6342508;22;20058;-83
2023/03/22 21:02:16;;;;;;;14.02;8.23;;;11.50;99.90;;;;;;6369154;22;20017;-83
2023/03/22 21:04:42;;;;;;;15.32;9.65;;;11.40;99.90;;;;;;6342175;22;20434;-82
2023/03/22 21:07:17;;;;;;;16.08;9.77;;;11.90;99.90;;;;;;6368871;22;20025;-82
2023/03/22 21:09:43;;;;;;;16.40;9.88;;;11.70;99.90;;;;;;6341360;22;20021;-82
2023/03/22 21:12:11;;;;;;;20.08;9.77;;;10.40;99.90;;;;;;6341250;22;20022;-81
2023/03/22 21:14:43;;;;;;;17.17;9.82;;;10.70;99.90;;;;;;6346338;22;20210;-83
2023/03/22 21:17:08;;;;;;;15.57;9.88;;;10.40;99.90;;;;;;6346939;22;20045;-83
2023/03/22 21:19:34;;;;;;;14.80;8.70;;;10.30;99.90;;;;;;6370804;22;20326;-83
2023/03/22 21:22:00;;;;;;;17.10;9.65;;;11.00;99.90;;;;;;6346255;22;20034;-83
2023/03/22 21:24:26;;;;;;;16.58;10.05;;;10.30;99.90;;;;;;6378832;22;20511;-82
2023/03/22 21:26:52;;;;;;;16.23;9.95;;;10.30;99.90;;;;;;6341907;22;20011;-83
2023/03/22 21:29:17;;;;;;;19.25;10.57;;;10.30;99.90;;;;;;6340844;22;20019;-83
2023/03/22 21:31:43;;;;;;;21.58;11.80;;;11.00;99.90;;;;;;6369235;22;20014;-82
2023/03/22 21:34:09;;;;;;;16.83;10.50;;;10.90;99.90;;;;;;6341586;22;20010;-83
2023/03/22 21:36:36;;;;;;;17.77;10.55;;;10.30;99.90;;;;;;6340365;22;20021;-83
2023/03/22 21:39:07;;;;;;;16.77;10.27;;;11.40;99.90;;;;;;6369735;22;20010;-83
2023/03/22 21:41:34;;;;;;;19.05;11.02;;;10.40;99.90;;;;;;6370172;22;20015;-83
2023/03/22 21:44:06;;;;;;;19.25;11.07;;;10.30;99.90;;;;;;6368498;22;20089;-82
2023/03/22 21:46:36;;;;;;;18.00;10.00;;;11.30;99.90;;;;;;6342054;22;20017;-83